IAH weather

George Bush Intercontinental Houston Airport
Houston, Texas, United States

Public forecast

Using degrees Fahrenheit for public forecast. Weather courtesy of forecast.io.

METAR (pilot weather report)

Retrieved 2018/06/24 05:53 UTC (34 minutes ago):

KIAH 240553Z 18009KT 10SM SCT016 28/25 A2988 RMK AO2 SLP118 T02780250 10317 20278 403500250 53016

TAF (pilot weather forecast)

Retrieved 2018/06/24 06:22 UTC (5 minutes ago):

TAF KIAH 240520Z 2406/2512 17008KT P6SM SCT020 SCT250 FM240800 17009KT P6SM BKN015 BKN250 FM241500 18012KT P6SM SCT025 BKN035 FM241700 17014KT P6SM SCT040